Time;durP1;ratioP1;P1;durP2;ratioP2;P2;SDS_P1;SDS_P2;PMS_P1;PMS_P2;Temp;Humidity;BMP_temperature;BMP_pressure;BME280_temperature;BME280_humidity;BME280_pressure;Samples;Min_cycle;Max_cycle;Signal;HPM_P1;HPM_P2
2023/09/11 00:01:32;;;;;;;5.28;2.08;;;;;;;18.00;51.63;95349.84;4932970;29;20027;-92
2023/09/11 00:03:58;;;;;;;5.32;2.10;;;;;;;18.03;51.66;95346.91;4933931;29;20094;-91
2023/09/11 00:06:25;;;;;;;4.68;1.95;;;;;;;18.10;51.30;95339.44;4933096;29;20526;-91
2023/09/11 00:08:51;;;;;;;3.40;2.30;;;;;;;18.03;51.45;95340.56;4917143;29;20121;-92
2023/09/11 00:11:16;;;;;;;4.07;2.00;;;;;;;18.04;51.87;95342.09;4950864;29;20030;-91
2023/09/11 00:13:41;;;;;;;4.75;2.10;;;;;;;17.99;51.94;95342.75;4937829;29;20458;-91
2023/09/11 00:16:07;;;;;;;6.38;2.30;;;;;;;18.00;51.96;95352.63;4952746;29;20020;-90
2023/09/11 00:18:32;;;;;;;4.65;2.00;;;;;;;17.96;51.91;95340.94;4944035;29;20526;-91
2023/09/11 00:20:58;;;;;;;2.83;1.83;;;;;;;18.00;51.76;95347.06;4934623;29;20066;-91
2023/09/11 00:23:23;;;;;;;3.92;1.52;;;;;;;18.01;51.77;95346.63;4934105;29;20035;-89
2023/09/11 00:25:48;;;;;;;4.43;2.35;;;;;;;17.81;52.21;95346.44;4934394;29;20465;-90
2023/09/11 00:28:14;;;;;;;8.13;2.17;;;;;;;17.76;52.35;95345.09;4933978;29;20098;-89
2023/09/11 00:30:40;;;;;;;3.83;2.28;;;;;;;17.78;52.42;95345.41;4951729;29;20441;-92
2023/09/11 00:33:05;;;;;;;3.80;2.22;;;;;;;17.76;52.46;95341.53;4916460;29;20509;-91
2023/09/11 00:35:31;;;;;;;4.22;2.10;;;;;;;17.74;52.63;95344.81;4948860;29;20122;-91
2023/09/11 00:37:56;;;;;;;3.97;2.28;;;;;;;17.62;52.80;95345.03;4933358;29;20499;-91
2023/09/11 00:40:22;;;;;;;5.95;2.03;;;;;;;17.70;52.74;95349.72;4933638;29;20456;-91
2023/09/11 00:42:47;;;;;;;5.90;2.05;;;;;;;17.57;53.03;95346.44;4934661;29;20027;-93
2023/09/11 00:45:13;;;;;;;4.05;1.90;;;;;;;17.59;52.74;95352.28;4933947;29;20035;-93
2023/09/11 00:47:40;;;;;;;5.35;2.25;;;;;;;17.60;52.72;95348.25;4951456;29;20646;-93
2023/09/11 00:50:07;;;;;;;3.35;2.03;;;;;;;17.59;52.57;95341.16;4935393;29;20023;-90
2023/09/11 00:52:33;;;;;;;7.55;2.53;;;;;;;17.62;52.59;95351.34;4937629;29;20046;-90
2023/09/11 00:54:59;;;;;;;5.78;2.97;;;;;;;17.61;52.49;95351.81;4951898;29;20032;-92
2023/09/11 00:57:25;;;;;;;5.32;2.67;;;;;;;17.50;52.88;95341.22;4949958;29;20027;-91
2023/09/11 00:59:51;;;;;;;4.13;3.13;;;;;;;17.56;52.61;95346.91;4952962;28;20113;-92
2023/09/11 01:02:16;;;;;;;4.50;2.47;;;;;;;17.51;52.73;95340.75;4939124;29;20498;-93
2023/09/11 01:04:43;;;;;;;4.78;2.20;;;;;;;17.47;52.95;95329.03;4940099;29;20038;-92
2023/09/11 01:07:08;;;;;;;3.10;2.20;;;;;;;17.49;52.96;95339.66;4954867;28;20031;-92
2023/09/11 01:09:34;;;;;;;4.78;2.17;;;;;;;17.55;53.15;95342.56;4936982;29;20502;-90
2023/09/11 01:11:59;;;;;;;5.38;2.15;;;;;;;17.52;52.92;95347.84;4935880;29;20035;-92
2023/09/11 01:14:26;;;;;;;3.63;2.00;;;;;;;17.47;53.07;95344.94;4952400;29;20023;-91
2023/09/11 01:16:57;;;;;;;6.43;1.90;;;;;;;17.46;53.42;95354.53;4935898;29;20565;-89
2023/09/11 01:19:37;;;;;;;5.15;1.92;;;;;;;17.47;53.17;95337.38;4936331;29;20039;-89
2023/09/11 01:22:07;;;;;;;4.05;1.80;;;;;;;17.47;53.38;95344.94;4937056;29;20042;-92
2023/09/11 01:24:51;;;;;;;5.68;1.70;;;;;;;17.48;53.20;95343.69;4935113;29;20046;-91
2023/09/11 01:27:29;;;;;;;5.32;2.42;;;;;;;17.47;53.19;95339.38;4953686;29;20043;-92
2023/09/11 01:29:56;;;;;;;3.35;1.70;;;;;;;17.40;53.60;95329.38;4953168;29;20090;-91
2023/09/11 01:32:24;;;;;;;3.63;1.80;;;;;;;17.38;53.41;95336.66;4952722;29;20037;-91
2023/09/11 01:34:49;;;;;;;3.78;1.80;;;;;;;17.38;53.47;95334.66;4935813;29;20039;-92
2023/09/11 01:37:14;;;;;;;3.22;2.00;;;;;;;17.41;53.45;95330.16;4935677;29;20053;-93
2023/09/11 01:39:40;;;;;;;3.88;1.90;;;;;;;17.32;53.41;95322.66;4953096;29;20261;-92
2023/09/11 01:42:09;;;;;;;4.78;1.90;;;;;;;17.28;53.57;95330.38;4934691;29;20466;-93
2023/09/11 01:44:44;;;;;;;5.78;1.98;;;;;;;17.23;53.69;95328.25;4921301;29;20027;-92
2023/09/11 01:47:12;;;;;;;5.55;2.45;;;;;;;17.24;53.51;95325.00;4937558;29;20211;-92
2023/09/11 01:49:38;;;;;;;4.82;2.05;;;;;;;17.20;53.61;95332.75;4936579;29;20035;-91
2023/09/11 01:52:06;;;;;;;7.97;2.65;;;;;;;17.14;53.84;95331.06;4920647;29;20138;-92
2023/09/11 01:54:32;;;;;;;8.27;2.97;;;;;;;17.12;53.91;95339.88;4935054;29;20035;-90
2023/09/11 01:56:58;;;;;;;5.50;2.72;;;;;;;17.04;53.73;95324.81;4935626;29;20122;-90
2023/09/11 01:59:23;;;;;;;5.38;2.63;;;;;;;17.09;53.80;95326.16;4936077;29;20087;-89
2023/09/11 02:01:49;;;;;;;5.65;2.90;;;;;;;17.00;53.65;95329.75;4935577;29;20573;-90
2023/09/11 02:04:14;;;;;;;4.65;2.88;;;;;;;16.96;53.87;95334.69;4950663;29;20030;-92
2023/09/11 02:06:40;;;;;;;6.82;2.78;;;;;;;16.92;53.79;95334.13;4951231;29;20036;-90
2023/09/11 02:09:06;;;;;;;5.63;3.08;;;;;;;16.88;53.94;95327.94;4935378;29;20090;-91
2023/09/11 02:11:31;;;;;;;9.82;2.95;;;;;;;16.81;54.01;95326.28;4934254;29;20209;-90
2023/09/11 02:13:56;;;;;;;6.65;3.00;;;;;;;16.76;53.68;95317.81;4951214;29;20097;-91
2023/09/11 02:16:22;;;;;;;4.60;2.80;;;;;;;16.77;54.07;95327.69;4950396;29;20478;-92
2023/09/11 02:18:47;;;;;;;5.10;2.97;;;;;;;16.68;54.08;95323.66;4951989;29;20131;-91
2023/09/11 02:21:12;;;;;;;7.80;3.53;;;;;;;16.67;54.16;95318.56;4938591;29;20467;-92
2023/09/11 02:23:38;;;;;;;4.70;2.95;;;;;;;16.65;54.30;95324.59;4952043;29;20146;-90
2023/09/11 02:26:03;;;;;;;5.32;3.15;;;;;;;16.63;54.17;95320.75;4951055;29;20517;-92
2023/09/11 02:28:29;;;;;;;4.63;2.55;;;;;;;16.59;54.58;95317.38;4950785;29;20065;-92
2023/09/11 02:30:55;;;;;;;7.07;2.25;;;;;;;16.59;54.67;95315.38;4952322;29;20082;-91
2023/09/11 02:33:20;;;;;;;3.85;2.00;;;;;;;16.52;55.01;95312.94;4934664;29;20405;-90
2023/09/11 02:35:55;;;;;;;5.53;2.28;;;;;;;16.55;55.07;95316.75;4935097;29;20231;-91
2023/09/11 02:38:21;;;;;;;2.75;1.90;;;;;;;16.47;55.41;95305.22;4933986;29;20110;-91
2023/09/11 02:40:46;;;;;;;5.00;2.03;;;;;;;16.45;55.16;95310.47;4934411;29;20078;-91
2023/09/11 02:43:12;;;;;;;6.78;2.95;;;;;;;16.39;54.92;95309.56;4935083;29;20023;-92
2023/09/11 02:45:37;;;;;;;7.00;3.28;;;;;;;16.30;54.60;95304.03;4950857;29;20015;-89
2023/09/11 02:48:02;;;;;;;4.75;3.38;;;;;;;16.22;54.64;95319.44;4934476;29;20383;-90
2023/09/11 02:50:28;;;;;;;4.18;3.47;;;;;;;16.15;54.54;95321.31;4933540;29;20069;-90
2023/09/11 02:52:53;;;;;;;6.93;3.03;;;;;;;16.11;54.58;95304.03;4950239;29;20039;-90
2023/09/11 02:55:19;;;;;;;6.95;3.85;;;;;;;16.15;54.54;95324.09;4949768;29;20595;-91
2023/09/11 02:57:44;;;;;;;4.90;2.95;;;;;;;16.09;54.61;95317.63;4950858;29;20031;-92
2023/09/11 03:00:11;;;;;;;5.20;3.58;;;;;;;16.04;54.72;95318.22;4950771;29;20027;-92
2023/09/11 03:02:36;;;;;;;9.32;3.30;;;;;;;16.03;54.68;95313.94;4934244;29;20513;-94
2023/09/11 03:05:02;;;;;;;6.57;3.83;;;;;;;16.01;54.79;95316.41;4933828;29;20106;-90
2023/09/11 03:07:28;;;;;;;7.35;4.00;;;;;;;15.95;54.78;95323.81;4933570;28;20039;-91
2023/09/11 03:09:53;;;;;;;6.68;4.07;;;;;;;15.90;54.71;95319.63;4958470;29;20033;-92
2023/09/11 03:12:19;;;;;;;6.80;4.53;;;;;;;15.89;55.01;95317.34;4956882;29;20019;-92
2023/09/11 03:14:45;;;;;;;6.68;3.65;;;;;;;15.87;55.11;95320.56;4975624;28;20082;-92
2023/09/11 03:17:12;;;;;;;5.38;3.42;;;;;;;15.76;55.36;95309.16;4967469;28;20035;-91
2023/09/11 03:19:37;;;;;;;8.93;4.45;;;;;;;15.76;55.42;95308.38;4943801;29;20098;-92
2023/09/11 03:22:03;;;;;;;7.00;3.80;;;;;;;15.69;55.35;95301.16;4934262;29;20023;-93
2023/09/11 03:24:28;;;;;;;11.90;4.70;;;;;;;15.69;55.51;95306.69;4951179;29;20031;-93
2023/09/11 03:26:53;;;;;;;10.52;5.20;;;;;;;15.69;55.27;95303.91;4933888;29;20561;-92
2023/09/11 03:29:19;;;;;;;9.65;4.50;;;;;;;15.58;55.28;95298.03;4949600;29;20104;-92
2023/09/11 03:31:44;;;;;;;10.60;5.20;;;;;;;15.64;55.28;95305.28;4934041;29;20038;-92
2023/09/11 03:34:10;;;;;;;10.23;5.35;;;;;;;15.63;55.20;95311.31;4917500;29;20039;-94
2023/09/11 03:36:35;;;;;;;11.07;5.78;;;;;;;15.60;55.19;95312.22;4918006;29;20051;-94
2023/09/11 03:39:01;;;;;;;7.45;4.97;;;;;;;15.54;55.19;95309.28;4932587;29;20031;-93
2023/09/11 03:41:27;;;;;;;6.75;4.35;;;;;;;15.51;55.21;95312.97;4949502;29;20122;-92
2023/09/11 03:43:52;;;;;;;13.07;5.07;;;;;;;15.39;55.40;95306.31;4916790;29;20030;-90
2023/09/11 03:46:18;;;;;;;8.40;4.70;;;;;;;15.33;55.64;95310.16;4949946;29;20119;-90
2023/09/11 03:48:43;;;;;;;9.98;4.82;;;;;;;15.32;55.79;95314.94;4949055;29;20041;-87
2023/09/11 03:51:09;;;;;;;10.32;5.10;;;;;;;15.23;55.83;95311.38;4947918;29;20046;-88
2023/09/11 03:53:34;;;;;;;10.48;5.13;;;;;;;15.27;56.04;95312.00;4933355;29;20320;-89
2023/09/11 03:56:00;;;;;;;10.40;5.65;;;;;;;15.25;56.38;95314.44;4916018;29;20035;-89
2023/09/11 03:58:26;;;;;;;10.35;5.32;;;;;;;15.25;56.53;95320.75;4932634;29;20031;-88
2023/09/11 04:00:51;;;;;;;11.07;4.88;;;;;;;15.23;56.46;95325.22;4947618;29;20019;-88
2023/09/11 04:03:16;;;;;;;7.57;5.03;;;;;;;15.19;56.68;95319.06;4931862;29;20058;-85
2023/09/11 04:05:42;;;;;;;7.90;4.38;;;;;;;15.11;56.92;95310.28;4915919;29;20058;-88
2023/09/11 04:08:08;;;;;;;10.07;4.40;;;;;;;15.19;57.10;95324.59;4946901;28;20070;-86
2023/09/11 04:10:33;;;;;;;6.97;4.57;;;;;;;15.20;57.21;95323.38;4949273;29;20423;-86
2023/09/11 04:12:59;;;;;;;5.10;3.75;;;;;;;15.23;57.13;95333.53;4931182;29;20035;-86
2023/09/11 04:15:25;;;;;;;7.03;4.70;;;;;;;15.20;57.35;95328.91;4932132;29;20031;-86
2023/09/11 04:17:54;;;;;;;8.07;4.30;;;;;;;15.14;57.45;95323.97;4946410;29;20027;-87
2023/09/11 04:20:20;;;;;;;12.27;4.32;;;;;;;15.12;57.58;95323.66;4947454;29;20027;-87
2023/09/11 04:22:45;;;;;;;7.35;4.40;;;;;;;15.17;57.69;95327.06;4931602;29;20052;-86
2023/09/11 04:25:11;;;;;;;8.93;4.45;;;;;;;15.13;57.51;95325.19;4931834;29;20031;-87
2023/09/11 04:27:36;;;;;;;7.68;3.85;;;;;;;15.12;57.50;95309.81;4916346;29;20040;-88
2023/09/11 04:30:02;;;;;;;8.88;3.88;;;;;;;15.15;57.56;95330.28;4931433;29;20034;-88
2023/09/11 04:32:27;;;;;;;13.15;4.28;;;;;;;15.16;57.43;95325.50;4932075;29;20020;-87
2023/09/11 04:34:53;;;;;;;9.85;4.18;;;;;;;15.19;57.63;95335.66;4914138;29;20053;-87
2023/09/11 04:37:18;;;;;;;7.68;3.92;;;;;;;15.13;57.65;95322.41;4931496;29;20055;-87
2023/09/11 04:39:44;;;;;;;8.75;3.70;;;;;;;15.16;57.63;95326.28;4947276;29;20620;-86
2023/09/11 04:42:09;;;;;;;6.80;4.03;;;;;;;15.13;57.66;95321.66;4916091;29;20094;-89
2023/09/11 04:44:35;;;;;;;8.88;4.03;;;;;;;15.20;57.71;95337.22;4932212;29;20023;-87
2023/09/11 04:47:00;;;;;;;11.23;4.50;;;;;;;15.16;57.74;95337.38;4947431;29;20031;-88
2023/09/11 04:49:26;;;;;;;9.23;4.57;;;;;;;15.13;57.93;95325.19;4947826;29;20479;-86
2023/09/11 04:51:52;;;;;;;6.75;4.25;;;;;;;15.09;58.03;95321.81;4948173;29;20033;-87
2023/09/11 04:54:17;;;;;;;8.35;4.50;;;;;;;15.16;58.08;95326.28;4932132;29;20087;-86
2023/09/11 04:56:43;;;;;;;8.73;4.82;;;;;;;15.22;57.82;95335.53;4946713;29;20035;-87
2023/09/11 04:59:09;;;;;;;6.00;4.38;;;;;;;15.20;57.95;95329.69;4931954;29;20102;-86
2023/09/11 05:01:35;;;;;;;9.27;4.95;;;;;;;15.20;57.90;95321.38;4929186;29;20038;-86
2023/09/11 05:04:02;;;;;;;6.07;4.15;;;;;;;15.33;57.87;95330.31;4947477;29;20032;-87
2023/09/11 05:06:28;;;;;;;8.88;3.88;;;;;;;15.29;57.76;95338.00;4915823;29;20054;-89
2023/09/11 05:08:53;;;;;;;8.40;3.72;;;;;;;15.38;57.85;95334.50;4930124;29;20847;-90
2023/09/11 05:11:19;;;;;;;5.38;3.92;;;;;;;15.41;57.76;95328.03;4916050;29;20042;-88
2023/09/11 05:13:44;;;;;;;7.82;4.32;;;;;;;15.44;57.75;95327.13;4930916;29;20106;-88
2023/09/11 05:16:10;;;;;;;5.72;3.83;;;;;;;15.44;58.02;95324.34;4915527;29;20043;-87
2023/09/11 05:18:35;;;;;;;6.95;3.70;;;;;;;15.48;57.76;95335.25;4913463;29;20039;-86
2023/09/11 05:21:01;;;;;;;9.95;3.83;;;;;;;15.55;57.79;95327.44;4913512;29;20119;-87
2023/09/11 05:23:26;;;;;;;4.95;3.63;;;;;;;15.56;57.68;95328.22;4930635;29;20027;-86
2023/09/11 05:25:53;;;;;;;7.80;4.00;;;;;;;15.54;57.70;95317.59;4915096;29;20058;-88
2023/09/11 05:28:18;;;;;;;7.80;3.22;;;;;;;15.64;57.44;95323.94;4931374;29;20517;-86
2023/09/11 05:30:43;;;;;;;6.20;3.65;;;;;;;15.66;57.66;95322.25;4914767;29;20031;-88
2023/09/11 05:33:09;;;;;;;5.15;3.53;;;;;;;15.72;57.40;95325.19;4931317;29;20028;-86
2023/09/11 05:35:34;;;;;;;8.07;4.20;;;;;;;15.78;57.69;95328.88;4914540;29;20122;-87
2023/09/11 05:38:00;;;;;;;5.60;3.42;;;;;;;15.83;57.52;95328.28;4915209;29;20039;-87
2023/09/11 05:40:25;;;;;;;7.53;3.60;;;;;;;15.88;57.49;95322.09;4929893;29;20028;-88
2023/09/11 05:42:50;;;;;;;4.70;3.15;;;;;;;15.98;57.37;95331.19;4930767;29;20039;-87
2023/09/11 05:45:16;;;;;;;5.60;3.10;;;;;;;16.06;56.91;95335.19;4916223;29;20034;-87
2023/09/11 05:47:41;;;;;;;7.50;3.17;;;;;;;16.10;57.02;95330.25;4933993;29;20035;-87
2023/09/11 05:50:07;;;;;;;6.35;2.83;;;;;;;16.13;56.62;95326.56;4918813;29;20039;-86
2023/09/11 05:52:33;;;;;;;6.32;2.83;;;;;;;16.26;56.48;95328.38;4917628;29;20027;-87
2023/09/11 05:54:59;;;;;;;5.95;3.55;;;;;;;16.28;56.46;95328.69;4935151;29;20034;-90
2023/09/11 05:57:24;;;;;;;7.60;3.92;;;;;;;16.31;57.46;95325.75;4934346;29;20031;-89
2023/09/11 05:59:50;;;;;;;6.88;3.50;;;;;;;16.34;57.53;95318.50;4935063;29;20049;-89
2023/09/11 06:02:15;;;;;;;11.27;4.18;;;;;;;16.45;57.43;95324.34;4951353;29;20036;-89
2023/09/11 06:04:40;;;;;;;9.43;4.28;;;;;;;16.45;56.82;95318.78;4935233;29;20034;-89
2023/09/11 06:07:06;;;;;;;7.55;4.47;;;;;;;16.51;57.06;95324.47;4920353;29;20031;-90
2023/09/11 06:09:31;;;;;;;12.85;5.63;;;;;;;16.60;57.13;95330.78;4928468;29;20031;-86
2023/09/11 06:11:57;;;;;;;7.68;4.22;;;;;;;16.62;56.51;95324.75;4939195;29;20035;-89
2023/09/11 06:14:22;;;;;;;9.63;4.03;;;;;;;16.73;55.73;95328.59;4935146;29;20082;-88
2023/09/11 06:16:48;;;;;;;7.20;3.95;;;;;;;16.72;55.76;95327.06;4935078;29;20114;-91
2023/09/11 06:19:13;;;;;;;7.38;4.25;;;;;;;16.85;55.86;95334.44;4917805;29;20023;-91
2023/09/11 06:21:41;;;;;;;6.22;3.55;;;;;;;16.85;55.62;95329.63;4918811;29;20069;-91
2023/09/11 06:24:06;;;;;;;11.95;4.28;;;;;;;16.79;55.57;95316.88;4919700;29;20031;-91
2023/09/11 06:26:32;;;;;;;8.65;3.00;;;;;;;16.99;55.22;95328.97;4934027;29;20042;-90
2023/09/11 06:28:58;;;;;;;7.45;2.88;;;;;;;17.20;53.72;95332.75;4935482;29;20031;-91
2023/09/11 06:31:23;;;;;;;6.38;2.58;;;;;;;17.17;53.95;95336.47;4917801;29;20193;-91
2023/09/11 06:33:49;;;;;;;6.55;3.63;;;;;;;17.21;53.93;95333.53;4919162;29;20438;-91
2023/09/11 06:36:15;;;;;;;5.35;3.25;;;;;;;17.14;53.97;95322.72;4933653;29;20051;-91
2023/09/11 06:38:40;;;;;;;8.57;3.17;;;;;;;17.27;53.92;95328.84;4939343;29;20110;-89
2023/09/11 06:41:06;;;;;;;5.80;3.30;;;;;;;17.23;53.75;95326.25;4923975;29;20454;-89
2023/09/11 06:43:31;;;;;;;6.95;3.33;;;;;;;17.36;54.04;95331.56;4936899;29;20019;-90
2023/09/11 06:45:57;;;;;;;8.80;4.63;;;;;;;17.48;53.75;95338.13;4934484;29;20066;-89
2023/09/11 06:48:22;;;;;;;9.63;3.85;;;;;;;17.45;53.49;95322.41;4917962;29;20035;-91
2023/09/11 06:50:48;;;;;;;8.50;3.60;;;;;;;17.64;53.49;95337.72;4919008;29;20086;-91
2023/09/11 06:53:14;;;;;;;8.10;4.22;;;;;;;17.68;53.06;95332.00;4933620;29;20613;-91
2023/09/11 06:55:48;;;;;;;7.45;3.85;;;;;;;17.80;53.03;95342.13;4922148;29;20466;-95
2023/09/11 06:58:14;;;;;;;6.97;4.18;;;;;;;17.87;52.80;95327.09;4921559;29;20054;-95
2023/09/11 07:00:40;;;;;;;7.25;3.90;;;;;;;17.93;52.60;95325.97;4937873;29;20483;-92
2023/09/11 07:03:06;;;;;;;5.50;3.50;;;;;;;18.04;52.29;95334.53;4916781;29;20078;-88
2023/09/11 07:05:38;;;;;;;7.38;3.20;;;;;;;18.10;51.87;95329.06;4917860;29;20039;-89
2023/09/11 07:08:03;;;;;;;7.88;3.75;;;;;;;18.34;51.16;95336.59;4924001;29;20035;-95
2023/09/11 07:10:29;;;;;;;9.00;3.05;;;;;;;18.36;50.90;95337.66;4920841;29;20050;-96
2023/09/11 07:12:57;;;;;;;5.47;3.08;;;;;;;18.20;51.11;95305.50;4918858;29;20027;-91
2023/09/11 07:15:23;;;;;;;7.82;3.45;;;;;;;18.25;51.03;95304.81;4916418;29;20159;-90
2023/09/11 07:17:51;;;;;;;8.52;3.83;;;;;;;18.55;50.19;95313.94;4921591;29;20375;-96
2023/09/11 07:20:17;;;;;;;10.13;3.75;;;;;;;18.67;50.89;95328.06;4938721;29;20026;-94
2023/09/11 07:22:42;;;;;;;7.88;4.00;;;;;;;18.61;50.06;95310.50;4936742;29;20019;-88
2023/09/11 07:25:12;;;;;;;10.38;4.20;;;;;;;18.80;49.97;95323.75;4919923;29;20046;-95
2023/09/11 07:27:40;;;;;;;8.80;4.03;;;;;;;18.86;49.28;95318.28;4918864;29;20089;-92
2023/09/11 07:30:10;;;;;;;8.13;3.72;;;;;;;18.92;49.41;95312.78;4917167;29;20023;-91
2023/09/11 07:32:36;;;;;;;10.27;3.78;;;;;;;19.01;49.18;95315.47;4916305;29;20135;-91
2023/09/11 07:35:02;;;;;;;10.82;4.40;;;;;;;18.80;49.28;95273.63;4917694;29;20063;-90
2023/09/11 07:37:27;;;;;;;8.63;3.60;;;;;;;19.23;48.96;95315.03;4915747;29;20129;-92
2023/09/11 07:39:53;;;;;;;7.55;3.78;;;;;;;19.32;48.45;95315.66;4917963;29;20032;-91
2023/09/11 07:42:19;;;;;;;5.90;3.50;;;;;;;19.52;47.69;95314.19;4916232;29;20040;-93
2023/09/11 07:44:44;;;;;;;9.57;3.40;;;;;;;19.78;46.28;95317.81;4933435;29;20130;-93
2023/09/11 07:47:09;;;;;;;7.63;3.15;;;;;;;19.88;46.08;95312.88;4916782;29;20038;-93
2023/09/11 07:49:35;;;;;;;7.53;3.30;;;;;;;19.95;46.07;95309.66;4900854;29;20035;-93
2023/09/11 07:52:01;;;;;;;8.68;3.90;;;;;;;20.21;45.27;95314.53;4920567;29;20031;-92
2023/09/11 07:54:27;;;;;;;8.68;4.10;;;;;;;20.29;45.04;95312.81;4943586;29;20035;-91
2023/09/11 07:56:53;;;;;;;5.38;3.58;;;;;;;20.40;45.15;95310.91;4919150;29;20094;-93
2023/09/11 07:59:18;;;;;;;7.25;3.58;;;;;;;20.45;45.42;95305.88;4916389;29;20023;-93
2023/09/11 08:01:44;;;;;;;8.13;3.58;;;;;;;20.62;45.22;95312.41;4932841;29;20031;-92
2023/09/11 08:04:11;;;;;;;6.78;3.30;;;;;;;20.84;43.61;95312.63;4932261;29;20023;-92
2023/09/11 08:06:38;;;;;;;7.50;3.47;;;;;;;21.01;43.32;95312.75;4916741;29;20039;-92
2023/09/11 08:09:04;;;;;;;9.57;3.53;;;;;;;21.07;42.75;95305.16;4900689;29;20046;-93
2023/09/11 08:11:31;;;;;;;6.05;2.72;;;;;;;21.24;42.58;95321.28;4932907;29;20032;-93
2023/09/11 08:13:56;;;;;;;7.80;3.47;;;;;;;21.38;42.41;95312.75;4924021;29;20027;-95
2023/09/11 08:16:22;;;;;;;5.93;3.00;;;;;;;21.51;41.54;95306.75;4922230;29;20656;-94
2023/09/11 08:18:47;;;;;;;8.00;3.63;;;;;;;21.71;41.03;95308.63;4918263;29;20025;-94
2023/09/11 08:21:13;;;;;;;8.02;3.33;;;;;;;21.86;40.14;95302.84;4899684;29;20039;-91
2023/09/11 08:23:42;;;;;;;8.48;3.60;;;;;;;22.10;39.87;95294.06;4919774;29;20027;-92
2023/09/11 08:26:08;;;;;;;6.70;2.95;;;;;;;22.32;39.28;95293.34;4922750;29;20023;-94
2023/09/11 08:28:34;;;;;;;8.00;3.55;;;;;;;22.49;39.13;95285.75;4932830;29;20041;-91
2023/09/11 08:31:00;;;;;;;8.02;2.95;;;;;;;22.81;38.29;95286.25;4916388;29;20035;-92
2023/09/11 08:33:25;;;;;;;4.95;2.90;;;;;;;23.02;37.24;95279.16;4920117;29;20031;-92
2023/09/11 08:35:51;;;;;;;5.85;2.45;;;;;;;23.22;36.80;95282.94;4925499;29;20073;-94
2023/09/11 08:38:18;;;;;;;4.03;2.55;;;;;;;23.51;36.14;95279.59;4916527;29;20039;-96
2023/09/11 08:40:44;;;;;;;4.53;2.65;;;;;;;23.74;35.00;95287.94;4934271;29;20054;-90
2023/09/11 08:43:11;;;;;;;5.97;2.65;;;;;;;23.93;34.89;95280.47;4934754;29;20410;-96
2023/09/11 08:45:37;;;;;;;4.90;2.30;;;;;;;24.11;34.40;95274.25;4939287;29;20023;-94
2023/09/11 08:48:11;;;;;;;4.72;2.10;;;;;;;24.35;34.36;95278.50;4917022;29;20113;-94
2023/09/11 08:50:44;;;;;;;8.07;3.38;;;;;;;24.60;34.31;95277.31;4930091;29;20109;-96
2023/09/11 08:53:11;;;;;;;4.97;2.17;;;;;;;24.95;33.14;95284.22;4937591;29;20121;-95
2023/09/11 08:55:38;;;;;;;4.60;2.33;;;;;;;25.18;32.34;95279.19;4916878;29;20031;-93
2023/09/11 08:58:06;;;;;;;5.32;2.50;;;;;;;25.41;32.68;95277.66;4933934;29;20023;-94
2023/09/11 09:00:32;;;;;;;5.55;2.85;;;;;;;25.73;32.23;95279.13;4920224;29;20494;-93
2023/09/11 09:02:59;;;;;;;8.02;2.90;;;;;;;26.00;31.85;95278.06;4907998;29;20035;-96
2023/09/11 09:05:25;;;;;;;4.40;3.08;;;;;;;26.28;31.56;95269.22;4936524;29;20038;-96
2023/09/11 09:07:51;;;;;;;4.65;2.58;;;;;;;26.55;31.01;95267.31;4940181;28;20039;-94
2023/09/11 09:10:18;;;;;;;6.00;2.58;;;;;;;26.84;30.29;95262.00;4933249;29;20607;-96
2023/09/11 09:12:44;;;;;;;4.75;2.15;;;;;;;27.06;30.32;95270.13;4932412;29;20035;-94
2023/09/11 09:15:10;;;;;;;5.38;3.00;;;;;;;27.31;30.33;95267.16;4954216;29;20027;-96
2023/09/11 09:17:35;;;;;;;5.03;2.72;;;;;;;27.52;29.48;95254.69;4939781;29;20027;-95
2023/09/11 09:20:04;;;;;;;4.38;2.47;;;;;;;27.77;28.97;95251.69;4956682;29;20047;-95
2023/09/11 09:22:29;;;;;;;6.05;2.17;;;;;;;28.06;28.81;95258.28;4940992;29;20023;-95
2023/09/11 09:24:55;;;;;;;3.30;2.38;;;;;;;28.35;28.14;95259.22;4953586;29;20033;-95
2023/09/11 09:27:22;;;;;;;8.10;2.60;;;;;;;28.53;27.50;95246.97;4939392;29;20039;-96
2023/09/11 09:29:50;;;;;;;7.28;2.80;;;;;;;28.73;27.56;95242.66;4931472;29;20027;-94
2023/09/11 09:32:16;;;;;;;4.50;2.80;;;;;;;28.98;27.50;95245.19;4929297;29;20129;-94
2023/09/11 09:34:53;;;;;;;4.65;2.20;;;;;;;29.20;27.00;95238.97;4933105;29;20042;-96
2023/09/11 09:37:19;;;;;;;8.43;2.65;;;;;;;29.43;26.48;95238.38;4950890;29;20110;-96
2023/09/11 09:39:48;;;;;;;7.45;3.00;;;;;;;29.60;26.39;95244.38;4943422;29;20037;-96
2023/09/11 09:42:14;;;;;;;6.38;2.25;;;;;;;29.78;25.92;95246.16;4960804;29;20030;-96
2023/09/11 09:44:42;;;;;;;7.53;2.45;;;;;;;29.81;25.47;95232.94;4945957;28;20051;-96
2023/09/11 09:47:13;;;;;;;7.80;2.35;;;;;;;29.89;24.91;95245.84;4946537;29;20134;-96
2023/09/11 09:49:55;;;;;;;4.65;2.53;;;;;;;30.04;25.17;95238.72;4935345;29;20125;-96
2023/09/11 09:52:28;;;;;;;6.07;2.80;;;;;;;30.22;25.49;95223.53;4936003;29;20027;-95
2023/09/11 09:55:03;;;;;;;6.57;2.67;;;;;;;30.55;25.31;95235.91;4939770;29;20046;-96
2023/09/11 09:57:28;;;;;;;4.32;2.35;;;;;;;30.72;24.75;95229.00;4944951;29;20027;-96
2023/09/11 10:00:01;;;;;;;6.65;2.65;;;;;;;30.84;24.24;95218.78;4963214;28;20034;-96
2023/09/11 10:02:27;;;;;;;5.43;2.08;;;;;;;31.01;23.53;95223.91;4947595;28;20015;-95
2023/09/11 10:04:54;;;;;;;5.43;2.20;;;;;;;31.11;24.00;95222.03;4960427;28;20023;-96
2023/09/11 10:07:39;;;;;;;4.78;2.60;;;;;;;31.36;23.68;95205.94;4959225;29;20027;-95
2023/09/11 10:10:24;;;;;;;6.97;2.30;;;;;;;31.46;23.14;95221.09;4937061;29;20027;-96
2023/09/11 10:13:12;;;;;;;4.05;2.28;;;;;;;31.56;23.69;95209.16;4956873;29;20037;-96
2023/09/11 10:15:38;;;;;;;4.93;2.15;;;;;;;32.06;22.89;95204.50;4943676;29;20050;-96
2023/09/11 10:18:05;;;;;;;6.22;2.50;;;;;;;32.29;21.99;95201.53;4944941;28;20035;-96
2023/09/11 10:20:31;;;;;;;5.45;2.92;;;;;;;32.89;21.81;95207.50;4953140;29;20043;-96
2023/09/11 10:23:00;;;;;;;6.53;2.47;;;;;;;33.56;20.96;95204.69;4950920;29;20055;-95
2023/09/11 10:25:35;;;;;;;3.30;2.08;;;;;;;34.27;20.25;95201.22;4943718;29;20094;-96
2023/09/11 10:28:06;;;;;;;4.20;2.22;;;;;;;34.95;19.85;95201.66;4946080;29;20095;-96
2023/09/11 10:30:50;;;;;;;6.40;2.20;;;;;;;35.56;18.58;95194.97;4935076;28;20422;-96
2023/09/11 10:33:22;;;;;;;4.25;2.10;;;;;;;36.08;18.42;95197.44;4933557;29;20031;-96
2023/09/11 10:36:00;;;;;;;4.82;1.92;;;;;;;36.88;17.68;95178.94;4930244;29;20129;-96
2023/09/11 10:38:29;;;;;;;3.78;2.25;;;;;;;37.64;16.66;95182.03;4925834;29;20041;-96
2023/09/11 10:40:57;;;;;;;10.13;2.88;;;;;;;38.05;16.44;95186.88;4948492;29;20023;-96
2023/09/11 10:43:22;;;;;;;5.22;2.10;;;;;;;38.07;15.34;95181.25;4954951;29;20569;-95
2023/09/11 10:45:49;;;;;;;3.88;2.50;;;;;;;38.43;15.78;95177.94;4944892;29;20023;-96
2023/09/11 10:48:41;;;;;;;5.95;2.53;;;;;;;38.31;15.50;95180.03;4931483;29;20098;-95
2023/09/11 10:51:06;;;;;;;5.93;1.90;;;;;;;38.79;15.11;95178.78;4941404;29;20036;-96
2023/09/11 10:53:32;;;;;;;6.82;2.15;;;;;;;39.32;15.12;95175.59;4923956;29;20041;-96
2023/09/11 10:56:00;;;;;;;7.40;2.17;;;;;;;39.77;14.71;95170.41;4923743;29;20027;-96
2023/09/11 10:58:28;;;;;;;4.57;2.30;;;;;;;40.29;14.34;95166.97;4925934;29;20027;-95
2023/09/11 11:00:54;;;;;;;5.07;2.42;;;;;;;40.97;13.57;95165.00;4953626;29;20114;-94
2023/09/11 11:03:19;;;;;;;7.07;2.30;;;;;;;41.23;13.33;95151.25;4923634;29;20025;-94
2023/09/11 11:05:46;;;;;;;5.25;1.90;;;;;;;41.28;13.26;95161.59;4939814;29;20059;-96
2023/09/11 11:08:11;;;;;;;6.50;2.30;;;;;;;41.59;12.84;95156.09;4923788;29;20280;-95
2023/09/11 11:10:40;;;;;;;6.13;2.13;;;;;;;42.11;12.57;95160.16;4922639;29;20055;-94
2023/09/11 11:13:09;;;;;;;3.80;1.90;;;;;;;42.53;12.60;95162.91;4921751;29;20031;-93
2023/09/11 11:15:35;;;;;;;3.42;2.15;;;;;;;42.85;12.28;95161.59;4919706;29;20059;-94
2023/09/11 11:18:26;;;;;;;8.10;2.40;;;;;;;43.10;12.09;95159.84;4918280;29;20558;-91
2023/09/11 11:21:04;;;;;;;3.28;1.90;;;;;;;42.93;12.26;95150.41;4917850;29;20039;-94
2023/09/11 11:23:31;;;;;;;9.90;2.85;;;;;;;42.46;12.57;95155.38;4919344;29;20396;-95
2023/09/11 11:26:06;;;;;;;5.82;2.92;;;;;;;40.86;13.45;95147.13;4920522;29;20037;-93
2023/09/11 11:28:40;;;;;;;6.95;2.35;;;;;;;39.89;14.42;95148.09;4933859;29;20035;-94
2023/09/11 11:31:08;;;;;;;5.57;2.05;;;;;;;39.28;14.93;95138.69;4936141;29;20034;-95